Thunder radar more information blitzortung!


Radar de pluja more information rain snow radar


Visita la nostra xarxa de llocs de meteo:

Template documentation
and downloads

And another site



No particular awareness of the weather is required.    There are no Weather-warnings

Pagina Historial Weather Underground text

Diari Resum Novembre 4, 2017 Unitats:  Mètric    Imperial   Tant
« Previous Dia
SegĂźent Dia »
Diari Setmana Mensual Anual Personalitzada
  Maxima: Minima: Media:
Temperatura: 22.2 °C 12.9 °C 15.6 °C
Punt de rosada: 15.3 °C 10.9 °C 12.5 °C
Humitat: 91 % 63 % 82 %
Wind Speed: 13.0 km/h 0.0 km/h 2.9 km/h
RĂ fegues de vent: 13.0 km/h - -
Vent:- - SSE
Pression baro: 1014.8 hPa 1010.0 hPa -
Precipitacions: 17.0 mm    
Historical Graphs
 
 
Dades de taula per Novembre 4, 2017
Temps Temperatura Punt de rosada Pression baro Vent Wind Speed RĂ fegues de vent Humitat Rainfall Rate (Hourly)
00:00 13.9 °C 11.8 °C 1014.8 hPa NNE 3.7 km/h 3.7 km/h 87 % 0.0 mm
00:05 13.9 °C 11.8 °C 1014.8 hPa Calm     87 % 0.0 mm
00:10 13.9 °C 11.8 °C 1014.8 hPa NNE 1.9 km/h 1.9 km/h 87 % 0.0 mm
00:15 13.8 °C 11.7 °C 1014.8 hPa Calm     87 % 0.0 mm
00:20 13.6 °C 11.5 °C 1014.8 hPa WSW 1.9 km/h 1.9 km/h 87 % 0.0 mm
00:25 13.4 °C 11.1 °C 1014.8 hPa WSW 1.9 km/h   86 % 0.0 mm
00:30 13.4 °C 11.3 °C 1014.8 hPa Calm     87 % 0.0 mm
00:35 13.4 °C 11.3 °C 1014.8 hPa NNE 3.7 km/h 3.7 km/h 87 % 0.0 mm
00:40 13.4 °C 11.3 °C 1013.8 hPa NNE 1.9 km/h   87 % 0.0 mm
00:45 13.4 °C 11.4 °C 1013.8 hPa Calm     88 % 0.0 mm
00:50 13.4 °C 11.4 °C 1013.8 hPa Calm     88 % 0.0 mm
00:55 13.4 °C 11.4 °C 1014.8 hPa Calm     88 % 0.0 mm
01:00 13.4 °C 11.4 °C 1014.8 hPa Calm     88 % 0.0 mm
01:05 13.3 °C 11.3 °C 1014.8 hPa Calm     88 % 0.0 mm
01:10 13.2 °C 11.3 °C 1013.8 hPa NNE 1.4 km/h   88 % 0.0 mm
01:15 13.2 °C 11.3 °C 1013.8 hPa Calm     88 % 0.0 mm
01:20 13.2 °C 11.3 °C 1013.8 hPa WNW 1.9 km/h 1.9 km/h 88 % 0.0 mm
01:25 13.2 °C 11.3 °C 1014.8 hPa Calm     88 % 0.0 mm
01:30 13.2 °C 11.3 °C 1014.8 hPa West 1.9 km/h 1.9 km/h 88 % 0.0 mm
01:35 13.2 °C 11.3 °C 1014.8 hPa West 2.3 km/h 2.3 km/h 88 % 0.0 mm
01:40 13.2 °C 11.4 °C 1014.8 hPa Calm     89 % 0.0 mm
01:45 13.2 °C 11.4 °C 1014.8 hPa Calm     89 % 0.0 mm
01:50 13.2 °C 11.4 °C 1014.8 hPa Calm     89 % 0.0 mm
01:55 13.2 °C 11.4 °C 1013.8 hPa Calm     89 % 0.0 mm
02:00 13.2 °C 11.4 °C 1013.8 hPa Calm     89 % 0.0 mm
02:05 13.2 °C 11.4 °C 1013.8 hPa Calm     89 % 0.0 mm
02:10 13.3 °C 11.5 °C 1013.8 hPa North 1.9 km/h   89 % 0.0 mm
02:15 13.3 °C 11.5 °C 1013.8 hPa Calm     89 % 0.0 mm
02:20 13.3 °C 11.7 °C 1013.8 hPa Calm     90 % 0.0 mm
02:21 13.3 °C 11.7 °C 1013.8 hPa Calm     90 % 0.0 mm
02:26 13.3 °C 11.7 °C 1013.8 hPa Calm     90 % 0.0 mm
02:31 13.2 °C 11.4 °C 1013.8 hPa Calm     89 % 0.0 mm
02:36 13.2 °C 11.4 °C 1013.8 hPa Calm     89 % 0.0 mm
02:41 13.2 °C 11.6 °C 1013.8 hPa Calm     90 % 0.0 mm
02:46 13.2 °C 11.6 °C 1013.8 hPa Calm     90 % 0.0 mm
02:51 13.2 °C 11.4 °C 1013.8 hPa Calm     89 % 0.0 mm
02:56 13.2 °C 11.6 °C 1013.8 hPa Calm     90 % 0.0 mm
03:01 13.2 °C 11.6 °C 1013.8 hPa Calm     90 % 0.0 mm
03:06 13.3 °C 11.7 °C 1013.8 hPa Calm     90 % 0.0 mm
03:11 13.3 °C 11.7 °C 1013.8 hPa Calm     90 % 0.0 mm
03:16 13.1 °C 11.5 °C 1013.8 hPa Calm     90 % 0.0 mm
03:21 13.2 °C 11.6 °C 1013.8 hPa Calm     90 % 0.0 mm
03:26 13.1 °C 11.5 °C 1013.8 hPa Calm     90 % 0.0 mm
03:31 13.1 °C 11.5 °C 1013.8 hPa Calm     90 % 0.0 mm
03:36 13.1 °C 11.5 °C 1013.8 hPa Calm     90 % 0.0 mm
03:41 13.1 °C 11.5 °C 1013.8 hPa Calm     90 % 0.0 mm
03:46 13.0 °C 11.4 °C 1013.8 hPa SW 3.7 km/h 3.7 km/h 90 % 0.0 mm
03:51 12.9 °C 11.1 °C 1013.8 hPa SW 2.3 km/h 2.3 km/h 89 % 0.0 mm
03:56 12.9 °C 11.3 °C 1013.8 hPa Calm     90 % 0.0 mm
04:01 12.9 °C 11.3 °C 1013.8 hPa Calm     90 % 0.0 mm
04:06 13.0 °C 11.4 °C 1013.8 hPa Calm     90 % 0.0 mm
04:11 13.0 °C 11.4 °C 1013.8 hPa North 1.9 km/h   90 % 0.0 mm
04:19 13.1 °C 11.5 °C 1013.8 hPa NNW 1.9 km/h   90 % 0.0 mm
04:21 13.1 °C 11.5 °C 1013.8 hPa North 1.9 km/h 1.9 km/h 90 % 0.0 mm
04:23 13.1 °C 11.5 °C 1013.8 hPa WNW 3.7 km/h 3.7 km/h 90 % 0.0 mm
04:26 13.1 °C 11.5 °C 1013.8 hPa NNW 5.0 km/h 5.0 km/h 90 % 0.0 mm
04:27 13.2 °C 11.6 °C 1013.8 hPa ENE 5.6 km/h 5.6 km/h 90 % 0.0 mm
04:30 13.2 °C 11.6 °C 1013.8 hPa North 5.6 km/h 5.6 km/h 90 % 0.0 mm
04:35 13.3 °C 11.7 °C 1013.8 hPa NNE 1.6 km/h 6.4 km/h 90 % 0.0 mm
04:40 13.4 °C 11.8 °C 1013.8 hPa NNE 4.8 km/h 9.7 km/h 90 % 0.0 mm
04:45 13.4 °C 11.8 °C 1013.8 hPa NNE 5.6 km/h 5.6 km/h 90 % 0.0 mm
04:50 13.5 °C 11.7 °C 1013.8 hPa NNE 9.3 km/h 9.3 km/h 89 % 0.0 mm
04:55 13.4 °C 11.7 °C 1013.8 hPa NNE 4.8 km/h 11.3 km/h 89 % 0.0 mm
05:00 13.4 °C 11.6 °C 1013.8 hPa NE 4.8 km/h 9.7 km/h 89 % 0.0 mm
05:05 13.4 °C 11.6 °C 1013.8 hPa NNE 7.4 km/h 7.4 km/h 89 % 0.0 mm
05:10 13.4 °C 11.6 °C 1013.8 hPa North 9.3 km/h 9.3 km/h 89 % 0.0 mm
05:15 13.3 °C 11.5 °C 1013.8 hPa NNE 3.2 km/h 8.0 km/h 89 % 0.0 mm
05:20 13.3 °C 11.5 °C 1013.8 hPa NNE 3.2 km/h 8.0 km/h 89 % 0.0 mm
05:25 13.3 °C 11.5 °C 1012.8 hPa North 5.6 km/h 5.6 km/h 89 % 0.0 mm
05:30 13.3 °C 11.5 °C 1012.8 hPa North 3.7 km/h   89 % 0.0 mm
05:35 13.4 °C 11.6 °C 1012.8 hPa North 1.6 km/h 4.8 km/h 89 % 0.0 mm
05:40 13.4 °C 11.6 °C 1013.8 hPa North 1.6 km/h 3.2 km/h 89 % 0.0 mm
05:45 13.4 °C 11.6 °C 1013.8 hPa Calm   3.2 km/h 89 % 0.0 mm
05:50 13.5 °C 11.7 °C 1013.8 hPa Calm     89 % 0.0 mm
05:55 13.5 °C 11.7 °C 1013.8 hPa Calm     89 % 0.0 mm
06:00 13.5 °C 11.7 °C 1013.8 hPa Calm     89 % 0.0 mm
06:05 13.5 °C 11.7 °C 1013.8 hPa Calm     89 % 0.0 mm
06:10 13.6 °C 11.8 °C 1013.8 hPa NW 3.2 km/h 3.2 km/h 89 % 0.0 mm
06:15 13.6 °C 11.8 °C 1013.8 hPa Calm     89 % 0.0 mm
06:20 13.6 °C 11.8 °C 1013.8 hPa North 2.6 km/h   89 % 0.0 mm
06:25 13.6 °C 11.8 °C 1013.8 hPa Calm   3.2 km/h 89 % 0.0 mm
06:30 13.7 °C 11.9 °C 1013.8 hPa NE 3.7 km/h 3.7 km/h 89 % 0.0 mm
06:35 13.7 °C 11.9 °C 1013.8 hPa NE 3.2 km/h 4.8 km/h 89 % 0.0 mm
06:40 13.7 °C 11.9 °C 1013.8 hPa Calm   4.8 km/h 89 % 0.0 mm
06:45 13.6 °C 11.7 °C 1013.8 hPa NE 1.9 km/h   88 % 0.0 mm
06:50 13.6 °C 11.7 °C 1013.8 hPa ENE 3.7 km/h   88 % 0.0 mm
06:55 13.6 °C 11.8 °C 1013.8 hPa WSW 1.6 km/h 3.2 km/h 89 % 0.0 mm
07:00 13.6 °C 11.8 °C 1013.8 hPa Calm     89 % 0.0 mm
07:05 13.6 °C 11.8 °C 1013.8 hPa SW 3.7 km/h 3.7 km/h 89 % 0.0 mm
07:10 13.6 °C 11.8 °C 1013.8 hPa SW 1.9 km/h 1.9 km/h 89 % 0.0 mm
07:15 13.6 °C 11.8 °C 1013.8 hPa Calm   3.2 km/h 89 % 0.0 mm
07:20 13.6 °C 11.8 °C 1013.8 hPa Calm   1.6 km/h 89 % 0.0 mm
07:25 13.6 °C 11.8 °C 1013.8 hPa NE 1.4 km/h 2.3 km/h 89 % 0.0 mm
07:30 13.7 °C 11.9 °C 1013.8 hPa WSW 3.7 km/h 3.7 km/h 89 % 0.0 mm
07:35 13.7 °C 11.9 °C 1013.8 hPa ENE 1.9 km/h 1.9 km/h 89 % 0.0 mm
07:40 13.7 °C 11.9 °C 1013.8 hPa Calm     89 % 0.0 mm
07:45 13.7 °C 11.9 °C 1013.8 hPa Calm     89 % 0.0 mm
07:50 13.8 °C 12.0 °C 1013.8 hPa NNE 1.9 km/h 1.9 km/h 89 % 0.0 mm
07:55 13.8 °C 12.0 °C 1013.8 hPa Calm     89 % 0.0 mm
08:00 13.8 °C 12.0 °C 1013.8 hPa Calm   3.2 km/h 89 % 0.0 mm
08:05 13.8 °C 12.0 °C 1013.8 hPa NE 1.6 km/h 3.2 km/h 89 % 0.0 mm
08:10 13.7 °C 11.9 °C 1013.8 hPa ENE 3.7 km/h 3.7 km/h 89 % 0.0 mm
08:15 13.7 °C 11.9 °C 1013.8 hPa Calm     89 % 0.0 mm
08:20 13.7 °C 11.9 °C 1013.8 hPa SW 3.7 km/h   89 % 0.0 mm
08:25 13.7 °C 11.9 °C 1012.8 hPa SW 3.2 km/h 3.2 km/h 89 % 0.0 mm
08:30 13.7 °C 11.9 °C 1012.8 hPa Calm   1.6 km/h 89 % 0.0 mm
08:35 13.7 °C 11.9 °C 1012.8 hPa SW 3.7 km/h 3.7 km/h 89 % 0.0 mm
08:40 13.7 °C 12.1 °C 1013.8 hPa SW 2.6 km/h 2.6 km/h 90 % 0.0 mm
08:45 13.6 °C 11.8 °C 1013.8 hPa SW 1.6 km/h 3.2 km/h 89 % 0.0 mm
08:50 13.6 °C 11.8 °C 1013.8 hPa WSW 1.6 km/h 3.2 km/h 89 % 0.0 mm
08:55 13.6 °C 12.0 °C 1013.8 hPa WSW 1.9 km/h   90 % 0.0 mm
09:00 13.7 °C 12.1 °C 1013.8 hPa WSW 3.5 km/h 3.5 km/h 90 % 0.0 mm
09:05 13.7 °C 12.1 °C 1013.8 hPa WSW 1.9 km/h 1.9 km/h 90 % 0.0 mm
09:10 13.8 °C 12.2 °C 1013.8 hPa Calm     90 % 0.0 mm
09:15 14.0 °C 12.4 °C 1013.8 hPa WNW 1.9 km/h 1.9 km/h 90 % 0.0 mm
09:20 14.1 °C 12.7 °C 1013.8 hPa Calm     91 % 0.0 mm
09:25 14.2 °C 12.8 °C 1012.8 hPa Calm   3.2 km/h 91 % 0.0 mm
09:30 14.4 °C 12.9 °C 1012.8 hPa NNE 5.0 km/h 5.0 km/h 91 % 0.0 mm
09:35 14.6 °C 13.0 °C 1012.8 hPa NNE 7.9 km/h 7.9 km/h 90 % 0.0 mm
09:40 15.1 °C 13.4 °C 1013.8 hPa NNE 3.7 km/h 3.7 km/h 90 % 0.0 mm
09:45 15.4 °C 13.6 °C 1013.8 hPa NE 7.4 km/h 7.4 km/h 89 % 0.0 mm
09:50 15.3 °C 13.3 °C 1013.8 hPa NE 3.2 km/h 8.0 km/h 88 % 0.0 mm
09:55 15.3 °C 13.2 °C 1013.8 hPa North 3.2 km/h 6.4 km/h 87 % 0.0 mm
10:00 15.3 °C 12.9 °C 1013.8 hPa NE 9.3 km/h 9.3 km/h 86 % 0.0 mm
10:05 15.5 °C 13.0 °C 1013.8 hPa NNE 7.4 km/h 7.4 km/h 85 % 0.0 mm
10:10 15.5 °C 13.0 °C 1013.8 hPa NNE 1.6 km/h 9.7 km/h 85 % 0.0 mm
10:15 15.7 °C 13.0 °C 1013.8 hPa NNE 4.8 km/h 9.7 km/h 84 % 0.0 mm
10:20 16.3 °C 13.6 °C 1013.8 hPa NW 3.9 km/h 3.9 km/h 84 % 0.0 mm
10:25 16.6 °C 13.7 °C 1013.8 hPa NNE 3.2 km/h 11.3 km/h 83 % 0.0 mm
10:30 16.7 °C 13.6 °C 1013.8 hPa NNE 4.8 km/h 11.3 km/h 82 % 0.0 mm
10:35 16.9 °C 13.6 °C 1013.8 hPa NNE 3.2 km/h 12.9 km/h 81 % 0.0 mm
10:40 17.3 °C 13.8 °C 1013.8 hPa NNE 5.6 km/h 5.6 km/h 80 % 0.0 mm
10:45 17.4 °C 13.7 °C 1013.8 hPa ENE 3.7 km/h 3.7 km/h 79 % 0.0 mm
10:50 17.4 °C 13.7 °C 1013.8 hPa NE 5.6 km/h 5.6 km/h 79 % 0.0 mm
10:55 17.1 °C 13.2 °C 1013.8 hPa NE 4.8 km/h 8.0 km/h 78 % 0.0 mm
11:00 17.3 °C 13.4 °C 1013.8 hPa NNE 3.7 km/h 3.9 km/h 78 % 0.0 mm
11:05 17.4 °C 13.5 °C 1013.8 hPa NE 3.2 km/h 4.8 km/h 78 % 0.0 mm
11:10 17.6 °C 13.7 °C 1014.8 hPa NNE 3.2 km/h 8.0 km/h 78 % 0.0 mm
11:15 17.8 °C 13.7 °C 1014.8 hPa NE 3.2 km/h 8.0 km/h 77 % 0.0 mm
11:20 18.0 °C 13.9 °C 1014.8 hPa NNE 1.6 km/h 6.4 km/h 77 % 0.0 mm
11:25 18.3 °C 14.4 °C 1013.8 hPa NNW 1.6 km/h 4.8 km/h 78 % 0.0 mm
11:30 18.7 °C 14.6 °C 1013.8 hPa North 3.7 km/h 3.7 km/h 77 % 0.0 mm
11:35 18.6 °C 14.3 °C 1013.8 hPa NE 3.2 km/h 4.8 km/h 76 % 0.0 mm
11:40 18.5 °C 14.2 °C 1013.8 hPa Calm   4.8 km/h 76 % 0.0 mm
11:45 18.7 °C 14.4 °C 1013.8 hPa SW 1.9 km/h   76 % 0.0 mm
11:50 18.9 °C 14.6 °C 1013.8 hPa NW 1.6 km/h 4.8 km/h 76 % 0.0 mm
11:55 19.1 °C 14.6 °C 1013.8 hPa NNW 1.6 km/h 3.2 km/h 75 % 0.0 mm
12:00 19.1 °C 14.6 °C 1013.8 hPa NE 2.3 km/h 2.3 km/h 75 % 0.0 mm
12:05 18.9 °C 14.4 °C 1013.8 hPa NNE 3.7 km/h 3.7 km/h 75 % 0.0 mm
12:10 19.0 °C 14.3 °C 1013.8 hPa ENE 3.7 km/h 3.7 km/h 74 % 0.0 mm
12:15 19.0 °C 14.3 °C 1013.8 hPa NE 3.2 km/h 6.4 km/h 74 % 0.0 mm
12:20 19.1 °C 14.3 °C 1013.8 hPa ENE 3.2 km/h 6.4 km/h 74 % 0.0 mm
12:25 19.2 °C 14.1 °C 1012.8 hPa East 5.6 km/h 6.1 km/h 72 % 0.0 mm
12:30 19.5 °C 14.3 °C 1012.8 hPa ESE 3.7 km/h 3.7 km/h 72 % 0.0 mm
12:35 19.8 °C 14.6 °C 1012.8 hPa East 5.6 km/h 5.6 km/h 72 % 0.0 mm
12:40 19.9 °C 14.7 °C 1011.7 hPa ENE 3.2 km/h 4.8 km/h 72 % 0.0 mm
12:45 20.3 °C 14.8 °C 1011.7 hPa East 1.6 km/h 6.4 km/h 71 % 0.0 mm
12:50 20.3 °C 14.7 °C 1011.7 hPa ESE 3.7 km/h 3.7 km/h 70 % 0.0 mm
12:55 20.5 °C 14.6 °C 1010.7 hPa ESE 7.9 km/h 7.9 km/h 69 % 0.0 mm
13:00 20.2 °C 14.6 °C 1010.7 hPa SE 1.6 km/h 8.0 km/h 70 % 0.0 mm
13:05 20.4 °C 14.5 °C 1010.7 hPa SSE 3.2 km/h 6.4 km/h 69 % 0.0 mm
13:10 20.6 °C 14.7 °C 1011.7 hPa NE 5.6 km/h 5.6 km/h 69 % 0.0 mm
13:15 20.4 °C 14.5 °C 1011.7 hPa NNW 5.6 km/h 5.6 km/h 69 % 0.0 mm
13:20 20.7 °C 14.8 °C 1011.7 hPa SE 4.7 km/h 4.7 km/h 69 % 0.0 mm
13:25 21.2 °C 14.8 °C 1011.7 hPa SE 1.6 km/h 4.8 km/h 67 % 0.0 mm
13:30 21.5 °C 15.3 °C 1011.7 hPa SW 3.2 km/h 8.0 km/h 68 % 0.0 mm
13:35 21.5 °C 15.1 °C 1011.7 hPa SW 5.6 km/h 5.6 km/h 67 % 0.0 mm
13:40 21.6 °C 15.0 °C 1010.7 hPa SSE 5.6 km/h 5.6 km/h 66 % 0.0 mm
13:45 21.5 °C 14.7 °C 1010.7 hPa South 3.2 km/h 4.8 km/h 65 % 0.0 mm
13:50 21.5 °C 14.9 °C 1010.7 hPa SW 1.6 km/h 4.8 km/h 66 % 0.0 mm
13:55 21.6 °C 15.2 °C 1010.7 hPa WSW 4.8 km/h 9.7 km/h 67 % 0.0 mm
14:00 21.7 °C 15.1 °C 1010.7 hPa WNW 5.6 km/h 5.6 km/h 66 % 0.0 mm
14:05 22.2 °C 15.3 °C 1010.7 hPa SW 3.2 km/h 8.0 km/h 65 % 0.0 mm
14:10 22.2 °C 15.1 °C 1010.7 hPa WSW 1.6 km/h 4.8 km/h 64 % 0.0 mm
14:15 22.1 °C 14.9 °C 1010.7 hPa WSW 5.3 km/h 5.3 km/h 64 % 0.0 mm
14:20 21.9 °C 14.8 °C 1010.7 hPa SW 5.6 km/h   64 % 0.0 mm
14:25 22.0 °C 14.6 °C 1010.7 hPa SW 1.6 km/h 3.2 km/h 63 % 0.0 mm
14:30 21.8 °C 14.9 °C 1010.7 hPa SW 5.6 km/h 5.6 km/h 65 % 0.0 mm
14:35 21.7 °C 14.6 °C 1010.7 hPa SW 1.6 km/h 4.8 km/h 64 % 0.0 mm
14:40 21.5 °C 14.4 °C 1010.7 hPa SW 1.6 km/h 4.8 km/h 64 % 0.0 mm
14:45 21.6 °C 14.7 °C 1010.7 hPa SW 5.6 km/h 5.6 km/h 65 % 0.0 mm
14:50 21.6 °C 14.7 °C 1010.7 hPa SW 3.2 km/h 8.0 km/h 65 % 0.0 mm
14:55 21.6 °C 14.7 °C 1010.7 hPa SW 3.2 km/h 6.4 km/h 65 % 0.0 mm
15:00 21.2 °C 13.9 °C 1010.7 hPa ENE 3.7 km/h   63 % 0.0 mm
15:05 21.4 °C 14.3 °C 1010.7 hPa SSW 3.5 km/h 3.5 km/h 64 % 0.0 mm
15:10 21.3 °C 14.4 °C 1010.0 hPa WSW 4.8 km/h 8.0 km/h 65 % 0.0 mm
15:15 21.3 °C 14.2 °C 1010.0 hPa SW 1.6 km/h 8.0 km/h 64 % 0.0 mm
15:20 21.4 °C 14.6 °C 1010.0 hPa West 4.7 km/h 4.7 km/h 65 % 0.0 mm
15:25 21.4 °C 14.6 °C 1010.0 hPa West 7.4 km/h 7.4 km/h 65 % 0.0 mm
15:30 21.5 °C 14.7 °C 1010.0 hPa SW 3.2 km/h 8.0 km/h 65 % 0.0 mm
15:35 21.6 °C 14.4 °C 1010.0 hPa SW 1.6 km/h 8.0 km/h 64 % 0.0 mm
15:40 21.7 °C 14.6 °C 1010.0 hPa SW 1.6 km/h 4.8 km/h 64 % 0.0 mm
15:45 21.8 °C 14.7 °C 1010.0 hPa South 3.7 km/h 3.7 km/h 64 % 0.0 mm
15:50 21.8 °C 14.7 °C 1010.0 hPa SW 3.2 km/h 8.0 km/h 64 % 0.0 mm
15:55 22.0 °C 14.9 °C 1010.0 hPa SW 4.8 km/h 8.0 km/h 64 % 0.0 mm
16:00 21.8 °C 14.6 °C 1010.0 hPa SW 4.8 km/h 9.7 km/h 64 % 0.0 mm
16:10 21.1 °C 14.0 °C 1010.0 hPa WSW 5.6 km/h 5.6 km/h 64 % 0.0 mm
16:15 20.9 °C 14.1 °C 1010.0 hPa SW 9.3 km/h 9.3 km/h 65 % 0.0 mm
16:20 20.7 °C 13.7 °C 1010.0 hPa WSW 9.3 km/h 9.3 km/h 64 % 0.0 mm
16:25 20.6 °C 13.6 °C 1010.0 hPa SW 5.6 km/h 5.6 km/h 64 % 0.0 mm
16:30 20.4 °C 13.3 °C 1010.0 hPa SW 5.6 km/h 5.6 km/h 64 % 0.0 mm
16:35 20.3 °C 13.5 °C 1010.0 hPa West 3.7 km/h 3.7 km/h 65 % 0.0 mm
16:40 20.2 °C 13.4 °C 1010.0 hPa SW 3.7 km/h 3.7 km/h 65 % 0.0 mm
16:45 20.0 °C 13.4 °C 1010.0 hPa WNW 5.6 km/h 5.6 km/h 66 % 0.0 mm
16:50 19.6 °C 13.3 °C 1010.0 hPa ENE 9.3 km/h 9.3 km/h 67 % 0.0 mm
16:55 19.2 °C 12.9 °C 1010.0 hPa NNE 11.1 km/h 11.1 km/h 67 % 0.0 mm
17:00 18.9 °C 12.9 °C 1010.0 hPa WNW 5.6 km/h 5.6 km/h 68 % 0.0 mm
17:05 18.8 °C 13.0 °C 1010.0 hPa NNE 5.6 km/h 5.6 km/h 69 % 0.0 mm
17:10 18.7 °C 12.9 °C 1010.0 hPa NNE 5.6 km/h 5.6 km/h 69 % 0.0 mm
17:15 18.5 °C 12.7 °C 1010.0 hPa NW 3.7 km/h 3.7 km/h 69 % 0.0 mm
17:20 18.4 °C 12.6 °C 1010.0 hPa NNE 4.2 km/h 4.2 km/h 69 % 0.0 mm
17:25 18.2 °C 12.6 °C 1010.0 hPa NNW 5.6 km/h 5.6 km/h 70 % 0.0 mm
17:30 18.1 °C 12.6 °C 1010.0 hPa NW 7.4 km/h 7.4 km/h 70 % 0.0 mm
17:35 17.9 °C 12.3 °C 1010.0 hPa NNE 13.0 km/h 13.0 km/h 70 % 0.0 mm
17:40 17.8 °C 12.3 °C 1010.0 hPa NNE 11.1 km/h 11.1 km/h 70 % 0.0 mm
17:45 17.7 °C 11.9 °C 1010.0 hPa NNW 6.1 km/h 6.1 km/h 69 % 0.0 mm
17:50 17.6 °C 11.8 °C 1010.0 hPa WSW 5.6 km/h 5.6 km/h 69 % 0.0 mm
17:55 17.6 °C 11.8 °C 1010.0 hPa NNE 3.7 km/h 3.7 km/h 69 % 0.0 mm
18:00 17.5 °C 11.5 °C 1010.0 hPa NNW 3.7 km/h 3.7 km/h 68 % 0.0 mm
18:05 17.5 °C 11.7 °C 1010.0 hPa NW 4.7 km/h 4.7 km/h 69 % 0.0 mm
18:10 17.3 °C 11.8 °C 1010.7 hPa WNW 7.4 km/h 7.4 km/h 70 % 0.0 mm
18:15 16.9 °C 11.8 °C 1010.7 hPa West 5.6 km/h 5.6 km/h 72 % 0.0 mm
18:20 16.2 °C 11.3 °C 1010.7 hPa WSW 5.6 km/h 5.6 km/h 73 % 0.0 mm
18:25 15.5 °C 11.1 °C 1011.7 hPa West 5.6 km/h 5.6 km/h 75 % 4.3 mm
18:30 15.1 °C 10.9 °C 1011.7 hPa WNW 7.4 km/h 7.4 km/h 76 % 8.4 mm
18:35 14.9 °C 11.1 °C 1011.7 hPa SW 1.9 km/h 2.3 km/h 78 % 8.4 mm
18:40 14.8 °C 11.2 °C 1011.7 hPa WSW 1.9 km/h 1.9 km/h 79 % 8.4 mm
18:45 14.7 °C 11.3 °C 1011.7 hPa Calm     80 % 8.4 mm
18:50 14.6 °C 11.2 °C 1011.7 hPa West 1.9 km/h   80 % 8.4 mm
18:55 14.6 °C 11.4 °C 1011.7 hPa Calm     81 % 8.4 mm
19:00 14.4 °C 11.4 °C 1011.7 hPa NE 3.7 km/h 3.7 km/h 82 % 8.4 mm
19:05 14.4 °C 11.6 °C 1011.7 hPa NE 2.3 km/h 2.3 km/h 83 % 8.4 mm
19:10 14.3 °C 11.4 °C 1011.7 hPa NE 7.4 km/h 7.4 km/h 83 % 8.4 mm
19:15 14.2 °C 11.3 °C 1011.7 hPa NNE 3.9 km/h 3.9 km/h 83 % 8.4 mm
19:20 14.0 °C 11.3 °C 1011.7 hPa ENE 5.6 km/h 5.6 km/h 84 % 14.7 mm
19:25 13.9 °C 11.2 °C 1010.7 hPa NNE 5.6 km/h 5.6 km/h 84 % 10.4 mm
19:30 13.8 °C 11.2 °C 1010.7 hPa Calm     84 % 6.3 mm
19:35 13.7 °C 11.1 °C 1010.7 hPa Calm     84 % 6.3 mm
19:40 13.7 °C 11.1 °C 1010.7 hPa WSW 3.7 km/h 3.7 km/h 84 % 6.3 mm
19:45 13.8 °C 11.2 °C 1010.7 hPa Calm     84 % 6.3 mm
19:50 13.8 °C 11.3 °C 1010.7 hPa SW 3.7 km/h 3.7 km/h 85 % 6.3 mm
19:55 13.7 °C 11.2 °C 1010.0 hPa SW 1.9 km/h 1.9 km/h 85 % 6.3 mm
20:00 13.7 °C 11.2 °C 1010.0 hPa SW 3.7 km/h 3.7 km/h 85 % 6.3 mm
20:05 13.6 °C 11.1 °C 1010.0 hPa SW 4.2 km/h 4.2 km/h 85 % 6.3 mm
20:10 13.6 °C 10.9 °C 1010.7 hPa WSW 7.4 km/h 7.4 km/h 84 % 6.3 mm
20:15 13.6 °C 11.1 °C 1010.7 hPa West 4.2 km/h 4.2 km/h 85 % 6.3 mm
20:20 13.6 °C 11.1 °C 1010.7 hPa WSW 5.6 km/h 5.6 km/h 85 % 0.0 mm
20:25 13.6 °C 11.1 °C 1010.7 hPa WSW 7.4 km/h 7.4 km/h 85 % 0.0 mm
20:30 13.6 °C 11.1 °C 1010.7 hPa West 4.2 km/h 4.2 km/h 85 % 1.0 mm
20:35 13.6 °C 11.5 °C 1010.7 hPa SW 3.7 km/h   87 % 1.0 mm
20:41 13.7 °C 11.6 °C 1010.7 hPa Calm     87 % 2.0 mm
20:46 13.7 °C 11.7 °C 1010.7 hPa Calm     88 % 2.0 mm
20:51 13.7 °C 11.7 °C 1010.7 hPa Calm     88 % 2.0 mm
20:56 13.7 °C 11.9 °C 1010.0 hPa Calm     89 % 2.0 mm
21:01 13.7 °C 11.9 °C 1010.0 hPa Calm     89 % 2.0 mm
21:06 13.7 °C 11.9 °C 1010.0 hPa Calm     89 % 2.0 mm
21:11 13.7 °C 11.9 °C 1010.0 hPa SSW 2.6 km/h 2.6 km/h 89 % 2.0 mm
21:16 13.7 °C 11.9 °C 1010.0 hPa SW 2.3 km/h 2.3 km/h 89 % 2.0 mm
21:21 13.7 °C 11.9 °C 1010.0 hPa SW 3.7 km/h 3.7 km/h 89 % 2.0 mm
21:26 13.6 °C 11.8 °C 1010.7 hPa SW 3.5 km/h 3.5 km/h 89 % 2.0 mm
21:31 13.6 °C 11.8 °C 1010.7 hPa SW 3.7 km/h 3.7 km/h 89 % 2.0 mm
21:36 13.5 °C 11.7 °C 1010.7 hPa Calm     89 % 1.0 mm
21:41 13.5 °C 11.7 °C 1010.7 hPa WSW 3.7 km/h 3.7 km/h 89 % 1.0 mm
21:46 13.6 °C 11.8 °C 1010.7 hPa Calm     89 % 0.0 mm
21:51 13.6 °C 12.0 °C 1010.7 hPa Calm     90 % 0.0 mm
21:56 13.6 °C 12.0 °C 1010.7 hPa SW 1.9 km/h   90 % 0.0 mm
22:01 13.5 °C 11.9 °C 1010.7 hPa SW 2.6 km/h   90 % 0.0 mm
22:06 13.5 °C 11.7 °C 1011.7 hPa WSW 3.7 km/h 3.7 km/h 89 % 0.0 mm
22:11 13.5 °C 11.7 °C 1011.7 hPa WSW 3.7 km/h 3.7 km/h 89 % 0.0 mm
22:16 13.5 °C 11.9 °C 1011.7 hPa WSW 1.9 km/h   90 % 0.0 mm
22:21 13.5 °C 11.9 °C 1011.7 hPa SW 1.9 km/h   90 % 0.0 mm
22:26 13.4 °C 11.8 °C 1011.7 hPa ESE 1.9 km/h 1.9 km/h 90 % 0.0 mm
22:27 13.4 °C 11.8 °C 1011.7 hPa ESE 1.9 km/h   90 % 0.0 mm
22:32 13.4 °C 11.9 °C 1011.7 hPa Calm     91 % 0.0 mm
22:33 13.4 °C 11.9 °C 1011.7 hPa Calm     91 % 0.0 mm
22:38 13.5 °C 12.1 °C 1010.7 hPa Calm     91 % 0.0 mm
22:43 13.4 °C 11.9 °C 1010.7 hPa Calm     91 % 0.0 mm
22:48 13.4 °C 11.9 °C 1010.7 hPa Calm     91 % 0.0 mm
22:53 13.5 °C 12.1 °C 1010.7 hPa Calm     91 % 0.0 mm
22:55 13.5 °C 12.1 °C 1010.7 hPa SW 3.9 km/h   91 % 0.0 mm
23:00 13.5 °C 12.1 °C 1010.7 hPa SW 1.4 km/h   91 % 0.0 mm
23:05 13.5 °C 12.1 °C 1010.7 hPa SW 3.2 km/h   91 % 0.0 mm
23:10 13.4 °C 11.9 °C 1010.7 hPa SW 3.9 km/h 3.9 km/h 91 % 0.0 mm
23:15 13.5 °C 12.1 °C 1010.7 hPa SW 3.7 km/h 3.7 km/h 91 % 0.0 mm
23:20 13.5 °C 12.1 °C 1010.7 hPa WSW 3.9 km/h 3.9 km/h 91 % 0.0 mm
23:25 13.5 °C 11.9 °C 1010.7 hPa WSW 3.7 km/h 3.7 km/h 90 % 0.0 mm
23:30 13.5 °C 12.1 °C 1010.7 hPa Calm     91 % 0.0 mm
23:35 13.5 °C 12.1 °C 1010.7 hPa Calm     91 % 0.0 mm
23:40 13.4 °C 11.9 °C 1010.7 hPa WSW 3.7 km/h   91 % 0.0 mm
23:45 13.4 °C 11.9 °C 1010.7 hPa SW 3.7 km/h   91 % 0.0 mm
23:50 13.3 °C 11.9 °C 1010.7 hPa Calm     91 % 0.0 mm
23:55 13.3 °C 11.9 °C 1010.0 hPa SW 3.7 km/h 3.7 km/h 91 % 0.0 mm
Meteo Sesrovires
Elogis d' Weather Underground - 4 mb

Guio original per  Jim McMurry - jmcmurry@mwt.net Adaptat per a la plantilla per  Wim van der Kuil - Leuven-Template.eu

Trobareu la nostra informacio del temps tambe a:

Weather Underground

AWEKAS